<?xml version="1.0" encoding="UTF-8" standalone="no" ?>
<gpx xmlns="http://www.topografix.com/GPX/1/1" xmlns:xsi="http://www.w3.org/2001/XMLSchema-instance" xsi:schemaLocation="http://www.topografix.com/GPX/1/1 http://www.topografix.com/GPX/1/1/gpx.xsd" version="1.1" creator="VisuGPX - https://www.visugpx.com">
  <metadata>
    <name>308_Circuit 65 km Les Herbiers_Les Herbiers édité par cth85.com</name>
    <desc><![CDATA[Circuit de 87 km passant par:
Les Herbiers
D23 Beaurepaire
D23 Bazoges en Paillers
D6 Chavagnes en Paillers
D39 Saint Denis la Chevasse
D6, D13 Chauché
D37 Saint Fulgent
D11 Mesnard la Barotière
D11 Les Herbiers]]></desc>
  </metadata>
  <trk>
    <name><![CDATA[65_308 on cth85.com]]></name>
    <extensions>
      <line xmlns="http://www.topografix.com/GPX/gpx_style/0/2">
        <color>0000FF</color>
        <width>4</width>
      </line>
    </extensions>
    <trkseg>
      <trkpt lat="46.86389" lon="-1.00988">
        <ele>119</ele>
        <time>2012-03-24T14:58:05Z</time>
      </trkpt>
      <trkpt lat="46.86392" lon="-1.00994">
        <ele>119</ele>
        <time>2012-03-24T14:58:06Z</time>
      </trkpt>
      <trkpt lat="46.86402" lon="-1.00994">
        <ele>119</ele>
        <time>2012-03-24T14:58:08Z</time>
      </trkpt>
      <trkpt lat="46.86405" lon="-1.01007">
        <ele>119</ele>
        <time>2012-03-24T14:58:10Z</time>
      </trkpt>
      <trkpt lat="46.86399" lon="-1.01016">
        <ele>119</ele>
        <time>2012-03-24T14:58:11Z</time>
      </trkpt>
      <trkpt lat="46.86393" lon="-1.01015">
        <ele>119</ele>
        <time>2012-03-24T14:58:12Z</time>
      </trkpt>
      <trkpt lat="46.86389" lon="-1.01008">
        <ele>119</ele>
        <time>2012-03-24T14:58:13Z</time>
      </trkpt>
      <trkpt lat="46.8638" lon="-1.01046">
        <ele>119</ele>
        <time>2012-03-24T14:58:18Z</time>
      </trkpt>
      <trkpt lat="46.86361" lon="-1.01206">
        <ele>117</ele>
        <time>2012-03-24T14:58:36Z</time>
      </trkpt>
      <trkpt lat="46.86356" lon="-1.0122">
        <ele>117</ele>
        <time>2012-03-24T14:58:38Z</time>
      </trkpt>
      <trkpt lat="46.86346" lon="-1.0123">
        <ele>117</ele>
        <time>2012-03-24T14:58:40Z</time>
      </trkpt>
      <trkpt lat="46.86345" lon="-1.01247">
        <ele>117</ele>
        <time>2012-03-24T14:58:42Z</time>
      </trkpt>
      <trkpt lat="46.86339" lon="-1.01252">
        <ele>117</ele>
        <time>2012-03-24T14:58:43Z</time>
      </trkpt>
      <trkpt lat="46.8633" lon="-1.01251">
        <ele>117</ele>
        <time>2012-03-24T14:58:45Z</time>
      </trkpt>
      <trkpt lat="46.86319" lon="-1.01309">
        <ele>116</ele>
        <time>2012-03-24T14:58:51Z</time>
      </trkpt>
      <trkpt lat="46.8631" lon="-1.01392">
        <ele>116</ele>
        <time>2012-03-24T14:59:01Z</time>
      </trkpt>
      <trkpt lat="46.86283" lon="-1.01574">
        <ele>113</ele>
        <time>2012-03-24T14:59:22Z</time>
      </trkpt>
      <trkpt lat="46.86289" lon="-1.01579">
        <ele>113</ele>
        <time>2012-03-24T14:59:23Z</time>
      </trkpt>
      <trkpt lat="46.86291" lon="-1.01591">
        <ele>114</ele>
        <time>2012-03-24T14:59:25Z</time>
      </trkpt>
      <trkpt lat="46.86286" lon="-1.016">
        <ele>114</ele>
        <time>2012-03-24T14:59:26Z</time>
      </trkpt>
      <trkpt lat="46.86281" lon="-1.01601">
        <ele>113</ele>
        <time>2012-03-24T14:59:27Z</time>
      </trkpt>
      <trkpt lat="46.86274" lon="-1.01594">
        <ele>113</ele>
        <time>2012-03-24T14:59:28Z</time>
      </trkpt>
      <trkpt lat="46.86274" lon="-1.01585">
        <ele>113</ele>
        <time>2012-03-24T14:59:29Z</time>
      </trkpt>
      <trkpt lat="46.86237" lon="-1.01576">
        <ele>112</ele>
        <time>2012-03-24T14:59:36Z</time>
      </trkpt>
      <trkpt lat="46.86223" lon="-1.01578">
        <ele>112</ele>
        <time>2012-03-24T14:59:38Z</time>
      </trkpt>
      <trkpt lat="46.86136" lon="-1.01694">
        <ele>112</ele>
        <time>2012-03-24T14:59:58Z</time>
      </trkpt>
      <trkpt lat="46.86144" lon="-1.01701">
        <ele>113</ele>
        <time>2012-03-24T14:59:59Z</time>
      </trkpt>
      <trkpt lat="46.86137" lon="-1.01733">
        <ele>113</ele>
        <time>2012-03-24T15:00:03Z</time>
      </trkpt>
      <trkpt lat="46.86125" lon="-1.01864">
        <ele>112</ele>
        <time>2012-03-24T15:00:18Z</time>
      </trkpt>
      <trkpt lat="46.861" lon="-1.01908">
        <ele>113</ele>
        <time>2012-03-24T15:00:25Z</time>
      </trkpt>
      <trkpt lat="46.86087" lon="-1.01916">
        <ele>113</ele>
        <time>2012-03-24T15:00:27Z</time>
      </trkpt>
      <trkpt lat="46.86093" lon="-1.01971">
        <ele>113</ele>
        <time>2012-03-24T15:00:33Z</time>
      </trkpt>
      <trkpt lat="46.86114" lon="-1.02017">
        <ele>113</ele>
        <time>2012-03-24T15:00:40Z</time>
      </trkpt>
      <trkpt lat="46.86198" lon="-1.02177">
        <ele>112</ele>
        <time>2012-03-24T15:01:03Z</time>
      </trkpt>
      <trkpt lat="46.86246" lon="-1.02241">
        <ele>112</ele>
        <time>2012-03-24T15:01:13Z</time>
      </trkpt>
      <trkpt lat="46.86278" lon="-1.02269">
        <ele>111</ele>
        <time>2012-03-24T15:01:20Z</time>
      </trkpt>
      <trkpt lat="46.863" lon="-1.02281">
        <ele>111</ele>
        <time>2012-03-24T15:01:24Z</time>
      </trkpt>
      <trkpt lat="46.86395" lon="-1.02317">
        <ele>109</ele>
        <time>2012-03-24T15:01:40Z</time>
      </trkpt>
      <trkpt lat="46.86476" lon="-1.02363">
        <ele>106</ele>
        <time>2012-03-24T15:01:54Z</time>
      </trkpt>
      <trkpt lat="46.86539" lon="-1.02432">
        <ele>106</ele>
        <time>2012-03-24T15:02:08Z</time>
      </trkpt>
      <trkpt lat="46.86655" lon="-1.02586">
        <ele>103</ele>
        <time>2012-03-24T15:02:34Z</time>
      </trkpt>
      <trkpt lat="46.86681" lon="-1.02614">
        <ele>101</ele>
        <time>2012-03-24T15:02:39Z</time>
      </trkpt>
      <trkpt lat="46.86693" lon="-1.02614">
        <ele>101</ele>
        <time>2012-03-24T15:02:41Z</time>
      </trkpt>
      <trkpt lat="46.86706" lon="-1.0263">
        <ele>101</ele>
        <time>2012-03-24T15:02:44Z</time>
      </trkpt>
      <trkpt lat="46.86725" lon="-1.02639">
        <ele>100</ele>
        <time>2012-03-24T15:02:47Z</time>
      </trkpt>
      <trkpt lat="46.86794" lon="-1.02639">
        <ele>98</ele>
        <time>2012-03-24T15:02:59Z</time>
      </trkpt>
      <trkpt lat="46.86845" lon="-1.02654">
        <ele>96</ele>
        <time>2012-03-24T15:03:07Z</time>
      </trkpt>
      <trkpt lat="46.86873" lon="-1.02673">
        <ele>95</ele>
        <time>2012-03-24T15:03:13Z</time>
      </trkpt>
      <trkpt lat="46.86953" lon="-1.02743">
        <ele>95</ele>
        <time>2012-03-24T15:03:28Z</time>
      </trkpt>
      <trkpt lat="46.86988" lon="-1.02758">
        <ele>94</ele>
        <time>2012-03-24T15:03:34Z</time>
      </trkpt>
      <trkpt lat="46.87024" lon="-1.02757">
        <ele>94</ele>
        <time>2012-03-24T15:03:40Z</time>
      </trkpt>
      <trkpt lat="46.87137" lon="-1.02708">
        <ele>97</ele>
        <time>2012-03-24T15:04:00Z</time>
      </trkpt>
      <trkpt lat="46.87139" lon="-1.02695">
        <ele>97</ele>
        <time>2012-03-24T15:04:01Z</time>
      </trkpt>
      <trkpt lat="46.87154" lon="-1.02683">
        <ele>98</ele>
        <time>2012-03-24T15:04:04Z</time>
      </trkpt>
      <trkpt lat="46.87168" lon="-1.02687">
        <ele>98</ele>
        <time>2012-03-24T15:04:07Z</time>
      </trkpt>
      <trkpt lat="46.87178" lon="-1.02684">
        <ele>99</ele>
        <time>2012-03-24T15:04:08Z</time>
      </trkpt>
      <trkpt lat="46.87235" lon="-1.02655">
        <ele>101</ele>
        <time>2012-03-24T15:04:18Z</time>
      </trkpt>
      <trkpt lat="46.87445" lon="-1.02498">
        <ele>104</ele>
        <time>2012-03-24T15:04:58Z</time>
      </trkpt>
      <trkpt lat="46.87454" lon="-1.02483">
        <ele>105</ele>
        <time>2012-03-24T15:05:00Z</time>
      </trkpt>
      <trkpt lat="46.87495" lon="-1.02457">
        <ele>105</ele>
        <time>2012-03-24T15:05:07Z</time>
      </trkpt>
      <trkpt lat="46.87499" lon="-1.02448">
        <ele>105</ele>
        <time>2012-03-24T15:05:09Z</time>
      </trkpt>
      <trkpt lat="46.8751" lon="-1.02439">
        <ele>105</ele>
        <time>2012-03-24T15:05:11Z</time>
      </trkpt>
      <trkpt lat="46.87521" lon="-1.02441">
        <ele>105</ele>
        <time>2012-03-24T15:05:13Z</time>
      </trkpt>
      <trkpt lat="46.87528" lon="-1.02448">
        <ele>105</ele>
        <time>2012-03-24T15:05:14Z</time>
      </trkpt>
      <trkpt lat="46.87533" lon="-1.02463">
        <ele>106</ele>
        <time>2012-03-24T15:05:16Z</time>
      </trkpt>
      <trkpt lat="46.87532" lon="-1.02475">
        <ele>106</ele>
        <time>2012-03-24T15:05:17Z</time>
      </trkpt>
      <trkpt lat="46.87543" lon="-1.02507">
        <ele>106</ele>
        <time>2012-03-24T15:05:21Z</time>
      </trkpt>
      <trkpt lat="46.87559" lon="-1.02578">
        <ele>105</ele>
        <time>2012-03-24T15:05:30Z</time>
      </trkpt>
      <trkpt lat="46.87574" lon="-1.02614">
        <ele>105</ele>
        <time>2012-03-24T15:05:35Z</time>
      </trkpt>
      <trkpt lat="46.87603" lon="-1.02668">
        <ele>105</ele>
        <time>2012-03-24T15:05:43Z</time>
      </trkpt>
      <trkpt lat="46.87612" lon="-1.02672">
        <ele>106</ele>
        <time>2012-03-24T15:05:44Z</time>
      </trkpt>
      <trkpt lat="46.87617" lon="-1.02693">
        <ele>107</ele>
        <time>2012-03-24T15:05:47Z</time>
      </trkpt>
      <trkpt lat="46.87692" lon="-1.0283">
        <ele>112</ele>
        <time>2012-03-24T15:06:07Z</time>
      </trkpt>
      <trkpt lat="46.87763" lon="-1.02906">
        <ele>115</ele>
        <time>2012-03-24T15:06:21Z</time>
      </trkpt>
      <trkpt lat="46.8789" lon="-1.03128">
        <ele>112</ele>
        <time>2012-03-24T15:06:54Z</time>
      </trkpt>
      <trkpt lat="46.88048" lon="-1.03355">
        <ele>107</ele>
        <time>2012-03-24T15:07:31Z</time>
      </trkpt>
      <trkpt lat="46.88095" lon="-1.03398">
        <ele>107</ele>
        <time>2012-03-24T15:07:41Z</time>
      </trkpt>
      <trkpt lat="46.882" lon="-1.03472">
        <ele>107</ele>
        <time>2012-03-24T15:08:00Z</time>
      </trkpt>
      <trkpt lat="46.8826" lon="-1.03523">
        <ele>107</ele>
        <time>2012-03-24T15:08:12Z</time>
      </trkpt>
      <trkpt lat="46.88686" lon="-1.03956">
        <ele>104</ele>
        <time>2012-03-24T15:09:38Z</time>
      </trkpt>
      <trkpt lat="46.88722" lon="-1.03978">
        <ele>105</ele>
        <time>2012-03-24T15:09:45Z</time>
      </trkpt>
      <trkpt lat="46.88732" lon="-1.0397">
        <ele>106</ele>
        <time>2012-03-24T15:09:47Z</time>
      </trkpt>
      <trkpt lat="46.88744" lon="-1.03976">
        <ele>106</ele>
        <time>2012-03-24T15:09:49Z</time>
      </trkpt>
      <trkpt lat="46.88748" lon="-1.03986">
        <ele>106</ele>
        <time>2012-03-24T15:09:50Z</time>
      </trkpt>
      <trkpt lat="46.88745" lon="-1.04017">
        <ele>106</ele>
        <time>2012-03-24T15:09:54Z</time>
      </trkpt>
      <trkpt lat="46.88751" lon="-1.04054">
        <ele>105</ele>
        <time>2012-03-24T15:09:58Z</time>
      </trkpt>
      <trkpt lat="46.88932" lon="-1.04624">
        <ele>103</ele>
        <time>2012-03-24T15:11:10Z</time>
      </trkpt>
      <trkpt lat="46.88957" lon="-1.04683">
        <ele>102</ele>
        <time>2012-03-24T15:11:17Z</time>
      </trkpt>
      <trkpt lat="46.88975" lon="-1.04713">
        <ele>102</ele>
        <time>2012-03-24T15:11:22Z</time>
      </trkpt>
      <trkpt lat="46.89125" lon="-1.04924">
        <ele>103</ele>
        <time>2012-03-24T15:11:57Z</time>
      </trkpt>
      <trkpt lat="46.89153" lon="-1.04971">
        <ele>103</ele>
        <time>2012-03-24T15:12:04Z</time>
      </trkpt>
      <trkpt lat="46.89204" lon="-1.05075">
        <ele>103</ele>
        <time>2012-03-24T15:12:18Z</time>
      </trkpt>
      <trkpt lat="46.89316" lon="-1.05326">
        <ele>102</ele>
        <time>2012-03-24T15:12:53Z</time>
      </trkpt>
      <trkpt lat="46.8935" lon="-1.05412">
        <ele>102</ele>
        <time>2012-03-24T15:13:04Z</time>
      </trkpt>
      <trkpt lat="46.89669" lon="-1.06335">
        <ele>92</ele>
        <time>2012-03-24T15:15:02Z</time>
      </trkpt>
      <trkpt lat="46.89708" lon="-1.06435">
        <ele>90</ele>
        <time>2012-03-24T15:15:15Z</time>
      </trkpt>
      <trkpt lat="46.89751" lon="-1.06512">
        <ele>89</ele>
        <time>2012-03-24T15:15:26Z</time>
      </trkpt>
      <trkpt lat="46.89957" lon="-1.06826">
        <ele>95</ele>
        <time>2012-03-24T15:16:16Z</time>
      </trkpt>
      <trkpt lat="46.90119" lon="-1.07021">
        <ele>100</ele>
        <time>2012-03-24T15:16:51Z</time>
      </trkpt>
      <trkpt lat="46.90148" lon="-1.07068">
        <ele>101</ele>
        <time>2012-03-24T15:16:58Z</time>
      </trkpt>
      <trkpt lat="46.90174" lon="-1.07129">
        <ele>101</ele>
        <time>2012-03-24T15:17:06Z</time>
      </trkpt>
      <trkpt lat="46.90196" lon="-1.07215">
        <ele>101</ele>
        <time>2012-03-24T15:17:17Z</time>
      </trkpt>
      <trkpt lat="46.90203" lon="-1.07226">
        <ele>101</ele>
        <time>2012-03-24T15:17:18Z</time>
      </trkpt>
      <trkpt lat="46.90214" lon="-1.07261">
        <ele>101</ele>
        <time>2012-03-24T15:17:23Z</time>
      </trkpt>
      <trkpt lat="46.90235" lon="-1.07274">
        <ele>101</ele>
        <time>2012-03-24T15:17:27Z</time>
      </trkpt>
      <trkpt lat="46.90241" lon="-1.07295">
        <ele>101</ele>
        <time>2012-03-24T15:17:29Z</time>
      </trkpt>
      <trkpt lat="46.90253" lon="-1.07296">
        <ele>101</ele>
        <time>2012-03-24T15:17:31Z</time>
      </trkpt>
      <trkpt lat="46.90291" lon="-1.07319">
        <ele>101</ele>
        <time>2012-03-24T15:17:38Z</time>
      </trkpt>
      <trkpt lat="46.90351" lon="-1.07438">
        <ele>99</ele>
        <time>2012-03-24T15:17:55Z</time>
      </trkpt>
      <trkpt lat="46.9041" lon="-1.07575">
        <ele>97</ele>
        <time>2012-03-24T15:18:13Z</time>
      </trkpt>
      <trkpt lat="46.90457" lon="-1.07659">
        <ele>97</ele>
        <time>2012-03-24T15:18:26Z</time>
      </trkpt>
      <trkpt lat="46.90483" lon="-1.07742">
        <ele>96</ele>
        <time>2012-03-24T15:18:36Z</time>
      </trkpt>
      <trkpt lat="46.9049" lon="-1.07806">
        <ele>95</ele>
        <time>2012-03-24T15:18:44Z</time>
      </trkpt>
      <trkpt lat="46.90489" lon="-1.07869">
        <ele>95</ele>
        <time>2012-03-24T15:18:51Z</time>
      </trkpt>
      <trkpt lat="46.90479" lon="-1.07985">
        <ele>95</ele>
        <time>2012-03-24T15:19:04Z</time>
      </trkpt>
      <trkpt lat="46.90479" lon="-1.08048">
        <ele>95</ele>
        <time>2012-03-24T15:19:11Z</time>
      </trkpt>
      <trkpt lat="46.90487" lon="-1.08089">
        <ele>96</ele>
        <time>2012-03-24T15:19:16Z</time>
      </trkpt>
      <trkpt lat="46.90508" lon="-1.08142">
        <ele>96</ele>
        <time>2012-03-24T15:19:23Z</time>
      </trkpt>
      <trkpt lat="46.90545" lon="-1.08217">
        <ele>96</ele>
        <time>2012-03-24T15:19:34Z</time>
      </trkpt>
      <trkpt lat="46.90561" lon="-1.08241">
        <ele>96</ele>
        <time>2012-03-24T15:19:37Z</time>
      </trkpt>
      <trkpt lat="46.90585" lon="-1.08266">
        <ele>96</ele>
        <time>2012-03-24T15:19:42Z</time>
      </trkpt>
      <trkpt lat="46.90784" lon="-1.08372">
        <ele>94</ele>
        <time>2012-03-24T15:20:18Z</time>
      </trkpt>
      <trkpt lat="46.90817" lon="-1.08395">
        <ele>93</ele>
        <time>2012-03-24T15:20:24Z</time>
      </trkpt>
      <trkpt lat="46.90856" lon="-1.08438">
        <ele>93</ele>
        <time>2012-03-24T15:20:32Z</time>
      </trkpt>
      <trkpt lat="46.90863" lon="-1.08435">
        <ele>93</ele>
        <time>2012-03-24T15:20:33Z</time>
      </trkpt>
      <trkpt lat="46.90864" lon="-1.08441">
        <ele>93</ele>
        <time>2012-03-24T15:20:34Z</time>
      </trkpt>
      <trkpt lat="46.9086" lon="-1.08445">
        <ele>93</ele>
        <time>2012-03-24T15:20:35Z</time>
      </trkpt>
      <trkpt lat="46.90868" lon="-1.0846">
        <ele>93</ele>
        <time>2012-03-24T15:20:37Z</time>
      </trkpt>
      <trkpt lat="46.91059" lon="-1.08802">
        <ele>96</ele>
        <time>2012-03-24T15:21:27Z</time>
      </trkpt>
      <trkpt lat="46.9107" lon="-1.08816">
        <ele>96</ele>
        <time>2012-03-24T15:21:30Z</time>
      </trkpt>
      <trkpt lat="46.91073" lon="-1.08831">
        <ele>96</ele>
        <time>2012-03-24T15:21:31Z</time>
      </trkpt>
      <trkpt lat="46.91055" lon="-1.08885">
        <ele>95</ele>
        <time>2012-03-24T15:21:38Z</time>
      </trkpt>
      <trkpt lat="46.91007" lon="-1.09081">
        <ele>88</ele>
        <time>2012-03-24T15:22:02Z</time>
      </trkpt>
      <trkpt lat="46.90993" lon="-1.0916">
        <ele>86</ele>
        <time>2012-03-24T15:22:11Z</time>
      </trkpt>
      <trkpt lat="46.90937" lon="-1.09594">
        <ele>94</ele>
        <time>2012-03-24T15:23:02Z</time>
      </trkpt>
      <trkpt lat="46.9093" lon="-1.09622">
        <ele>94</ele>
        <time>2012-03-24T15:23:05Z</time>
      </trkpt>
      <trkpt lat="46.90921" lon="-1.09726">
        <ele>95</ele>
        <time>2012-03-24T15:23:17Z</time>
      </trkpt>
      <trkpt lat="46.90905" lon="-1.09826">
        <ele>94</ele>
        <time>2012-03-24T15:23:29Z</time>
      </trkpt>
      <trkpt lat="46.90875" lon="-1.10062">
        <ele>93</ele>
        <time>2012-03-24T15:23:56Z</time>
      </trkpt>
      <trkpt lat="46.90875" lon="-1.10062">
        <ele>93</ele>
        <time>2012-03-24T15:23:56Z</time>
      </trkpt>
      <trkpt lat="46.90841" lon="-1.10319">
        <ele>97</ele>
        <time>2012-03-24T15:24:26Z</time>
      </trkpt>
      <trkpt lat="46.90754" lon="-1.11084">
        <ele>90</ele>
        <time>2012-03-24T15:25:54Z</time>
      </trkpt>
      <trkpt lat="46.90618" lon="-1.1302">
        <ele>79</ele>
        <time>2012-03-24T15:29:36Z</time>
      </trkpt>
      <trkpt lat="46.90619" lon="-1.13055">
        <ele>78</ele>
        <time>2012-03-24T15:29:40Z</time>
      </trkpt>
      <trkpt lat="46.90637" lon="-1.1311">
        <ele>79</ele>
        <time>2012-03-24T15:29:47Z</time>
      </trkpt>
      <trkpt lat="46.90666" lon="-1.13167">
        <ele>82</ele>
        <time>2012-03-24T15:29:55Z</time>
      </trkpt>
      <trkpt lat="46.90732" lon="-1.13276">
        <ele>86</ele>
        <time>2012-03-24T15:30:12Z</time>
      </trkpt>
      <trkpt lat="46.90764" lon="-1.13345">
        <ele>87</ele>
        <time>2012-03-24T15:30:21Z</time>
      </trkpt>
      <trkpt lat="46.9078" lon="-1.13421">
        <ele>87</ele>
        <time>2012-03-24T15:30:30Z</time>
      </trkpt>
      <trkpt lat="46.90797" lon="-1.13481">
        <ele>88</ele>
        <time>2012-03-24T15:30:37Z</time>
      </trkpt>
      <trkpt lat="46.91037" lon="-1.14198">
        <ele>91</ele>
        <time>2012-03-24T15:32:08Z</time>
      </trkpt>
      <trkpt lat="46.91051" lon="-1.14253">
        <ele>90</ele>
        <time>2012-03-24T15:32:15Z</time>
      </trkpt>
      <trkpt lat="46.9106" lon="-1.14321">
        <ele>90</ele>
        <time>2012-03-24T15:32:23Z</time>
      </trkpt>
      <trkpt lat="46.9107" lon="-1.1435">
        <ele>90</ele>
        <time>2012-03-24T15:32:27Z</time>
      </trkpt>
      <trkpt lat="46.91079" lon="-1.14364">
        <ele>90</ele>
        <time>2012-03-24T15:32:29Z</time>
      </trkpt>
      <trkpt lat="46.91073" lon="-1.14414">
        <ele>91</ele>
        <time>2012-03-24T15:32:35Z</time>
      </trkpt>
      <trkpt lat="46.91097" lon="-1.14598">
        <ele>92</ele>
        <time>2012-03-24T15:32:56Z</time>
      </trkpt>
      <trkpt lat="46.91103" lon="-1.14694">
        <ele>92</ele>
        <time>2012-03-24T15:33:07Z</time>
      </trkpt>
      <trkpt lat="46.9111" lon="-1.14898">
        <ele>93</ele>
        <time>2012-03-24T15:33:30Z</time>
      </trkpt>
      <trkpt lat="46.91109" lon="-1.15055">
        <ele>93</ele>
        <time>2012-03-24T15:33:48Z</time>
      </trkpt>
      <trkpt lat="46.91119" lon="-1.15515">
        <ele>93</ele>
        <time>2012-03-24T15:34:41Z</time>
      </trkpt>
      <trkpt lat="46.91116" lon="-1.15561">
        <ele>92</ele>
        <time>2012-03-24T15:34:46Z</time>
      </trkpt>
      <trkpt lat="46.91105" lon="-1.15617">
        <ele>91</ele>
        <time>2012-03-24T15:34:53Z</time>
      </trkpt>
      <trkpt lat="46.90911" lon="-1.16249">
        <ele>79</ele>
        <time>2012-03-24T15:36:12Z</time>
      </trkpt>
      <trkpt lat="46.90872" lon="-1.16392">
        <ele>74</ele>
        <time>2012-03-24T15:36:29Z</time>
      </trkpt>
      <trkpt lat="46.90845" lon="-1.17475">
        <ele>87</ele>
        <time>2012-03-24T15:38:33Z</time>
      </trkpt>
      <trkpt lat="46.906" lon="-1.20274">
        <ele>84</ele>
        <time>2012-03-24T15:43:54Z</time>
      </trkpt>
      <trkpt lat="46.90595" lon="-1.20312">
        <ele>85</ele>
        <time>2012-03-24T15:43:58Z</time>
      </trkpt>
      <trkpt lat="46.90577" lon="-1.20366">
        <ele>85</ele>
        <time>2012-03-24T15:44:05Z</time>
      </trkpt>
      <trkpt lat="46.90444" lon="-1.20622">
        <ele>80</ele>
        <time>2012-03-24T15:44:42Z</time>
      </trkpt>
      <trkpt lat="46.90426" lon="-1.20666">
        <ele>81</ele>
        <time>2012-03-24T15:44:48Z</time>
      </trkpt>
      <trkpt lat="46.90419" lon="-1.20701">
        <ele>81</ele>
        <time>2012-03-24T15:44:52Z</time>
      </trkpt>
      <trkpt lat="46.9025" lon="-1.22748">
        <ele>71</ele>
        <time>2012-03-24T15:48:47Z</time>
      </trkpt>
      <trkpt lat="46.90241" lon="-1.22837">
        <ele>71</ele>
        <time>2012-03-24T15:48:57Z</time>
      </trkpt>
      <trkpt lat="46.9023" lon="-1.22891">
        <ele>69</ele>
        <time>2012-03-24T15:49:04Z</time>
      </trkpt>
      <trkpt lat="46.902" lon="-1.22978">
        <ele>61</ele>
        <time>2012-03-24T15:49:15Z</time>
      </trkpt>
      <trkpt lat="46.90176" lon="-1.23022">
        <ele>56</ele>
        <time>2012-03-24T15:49:21Z</time>
      </trkpt>
      <trkpt lat="46.90149" lon="-1.23057">
        <ele>55</ele>
        <time>2012-03-24T15:49:27Z</time>
      </trkpt>
      <trkpt lat="46.90144" lon="-1.23077">
        <ele>55</ele>
        <time>2012-03-24T15:49:30Z</time>
      </trkpt>
      <trkpt lat="46.90131" lon="-1.23104">
        <ele>56</ele>
        <time>2012-03-24T15:49:33Z</time>
      </trkpt>
      <trkpt lat="46.90065" lon="-1.23177">
        <ele>59</ele>
        <time>2012-03-24T15:49:47Z</time>
      </trkpt>
      <trkpt lat="46.90017" lon="-1.23246">
        <ele>60</ele>
        <time>2012-03-24T15:49:58Z</time>
      </trkpt>
      <trkpt lat="46.89953" lon="-1.23318">
        <ele>62</ele>
        <time>2012-03-24T15:50:12Z</time>
      </trkpt>
      <trkpt lat="46.8991" lon="-1.23356">
        <ele>63</ele>
        <time>2012-03-24T15:50:20Z</time>
      </trkpt>
      <trkpt lat="46.89817" lon="-1.23465">
        <ele>66</ele>
        <time>2012-03-24T15:50:40Z</time>
      </trkpt>
      <trkpt lat="46.89722" lon="-1.2359">
        <ele>68</ele>
        <time>2012-03-24T15:51:01Z</time>
      </trkpt>
      <trkpt lat="46.89667" lon="-1.2372">
        <ele>68</ele>
        <time>2012-03-24T15:51:19Z</time>
      </trkpt>
      <trkpt lat="46.89634" lon="-1.23784">
        <ele>68</ele>
        <time>2012-03-24T15:51:28Z</time>
      </trkpt>
      <trkpt lat="46.89624" lon="-1.23824">
        <ele>67</ele>
        <time>2012-03-24T15:51:33Z</time>
      </trkpt>
      <trkpt lat="46.89615" lon="-1.2391">
        <ele>65</ele>
        <time>2012-03-24T15:51:43Z</time>
      </trkpt>
      <trkpt lat="46.89595" lon="-1.23959">
        <ele>62</ele>
        <time>2012-03-24T15:51:49Z</time>
      </trkpt>
      <trkpt lat="46.89575" lon="-1.23988">
        <ele>59</ele>
        <time>2012-03-24T15:51:54Z</time>
      </trkpt>
      <trkpt lat="46.89501" lon="-1.24034">
        <ele>54</ele>
        <time>2012-03-24T15:52:07Z</time>
      </trkpt>
      <trkpt lat="46.89486" lon="-1.24051">
        <ele>53</ele>
        <time>2012-03-24T15:52:11Z</time>
      </trkpt>
      <trkpt lat="46.89478" lon="-1.24068">
        <ele>53</ele>
        <time>2012-03-24T15:52:13Z</time>
      </trkpt>
      <trkpt lat="46.89393" lon="-1.24322">
        <ele>48</ele>
        <time>2012-03-24T15:52:45Z</time>
      </trkpt>
      <trkpt lat="46.89391" lon="-1.24388">
        <ele>44</ele>
        <time>2012-03-24T15:52:53Z</time>
      </trkpt>
      <trkpt lat="46.89398" lon="-1.24434">
        <ele>42</ele>
        <time>2012-03-24T15:52:58Z</time>
      </trkpt>
      <trkpt lat="46.89398" lon="-1.24495">
        <ele>41</ele>
        <time>2012-03-24T15:53:05Z</time>
      </trkpt>
      <trkpt lat="46.89355" lon="-1.24714">
        <ele>47</ele>
        <time>2012-03-24T15:53:31Z</time>
      </trkpt>
      <trkpt lat="46.89318" lon="-1.24873">
        <ele>60</ele>
        <time>2012-03-24T15:53:50Z</time>
      </trkpt>
      <trkpt lat="46.89318" lon="-1.24873">
        <ele>60</ele>
        <time>2012-03-24T15:53:50Z</time>
      </trkpt>
      <trkpt lat="46.89312" lon="-1.24896">
        <ele>62</ele>
        <time>2012-03-24T15:53:53Z</time>
      </trkpt>
      <trkpt lat="46.89313" lon="-1.24981">
        <ele>64</ele>
        <time>2012-03-24T15:54:03Z</time>
      </trkpt>
      <trkpt lat="46.89334" lon="-1.25015">
        <ele>65</ele>
        <time>2012-03-24T15:54:08Z</time>
      </trkpt>
      <trkpt lat="46.8934" lon="-1.2504">
        <ele>66</ele>
        <time>2012-03-24T15:54:11Z</time>
      </trkpt>
      <trkpt lat="46.8934" lon="-1.25061">
        <ele>66</ele>
        <time>2012-03-24T15:54:13Z</time>
      </trkpt>
      <trkpt lat="46.89327" lon="-1.2508">
        <ele>67</ele>
        <time>2012-03-24T15:54:16Z</time>
      </trkpt>
      <trkpt lat="46.89328" lon="-1.25128">
        <ele>66</ele>
        <time>2012-03-24T15:54:22Z</time>
      </trkpt>
      <trkpt lat="46.89375" lon="-1.2532">
        <ele>62</ele>
        <time>2012-03-24T15:54:45Z</time>
      </trkpt>
      <trkpt lat="46.89378" lon="-1.25351">
        <ele>62</ele>
        <time>2012-03-24T15:54:49Z</time>
      </trkpt>
      <trkpt lat="46.89373" lon="-1.25387">
        <ele>62</ele>
        <time>2012-03-24T15:54:53Z</time>
      </trkpt>
      <trkpt lat="46.8934" lon="-1.25506">
        <ele>62</ele>
        <time>2012-03-24T15:55:07Z</time>
      </trkpt>
      <trkpt lat="46.8933" lon="-1.2556">
        <ele>63</ele>
        <time>2012-03-24T15:55:14Z</time>
      </trkpt>
      <trkpt lat="46.89314" lon="-1.25671">
        <ele>68</ele>
        <time>2012-03-24T15:55:27Z</time>
      </trkpt>
      <trkpt lat="46.89299" lon="-1.25862">
        <ele>72</ele>
        <time>2012-03-24T15:55:49Z</time>
      </trkpt>
      <trkpt lat="46.89283" lon="-1.25924">
        <ele>72</ele>
        <time>2012-03-24T15:55:56Z</time>
      </trkpt>
      <trkpt lat="46.89278" lon="-1.25962">
        <ele>73</ele>
        <time>2012-03-24T15:56:01Z</time>
      </trkpt>
      <trkpt lat="46.89298" lon="-1.26245">
        <ele>71</ele>
        <time>2012-03-24T15:56:33Z</time>
      </trkpt>
      <trkpt lat="46.89294" lon="-1.26297">
        <ele>71</ele>
        <time>2012-03-24T15:56:39Z</time>
      </trkpt>
      <trkpt lat="46.89245" lon="-1.2664">
        <ele>72</ele>
        <time>2012-03-24T15:57:19Z</time>
      </trkpt>
      <trkpt lat="46.8924" lon="-1.26703">
        <ele>72</ele>
        <time>2012-03-24T15:57:26Z</time>
      </trkpt>
      <trkpt lat="46.89229" lon="-1.27018">
        <ele>71</ele>
        <time>2012-03-24T15:58:02Z</time>
      </trkpt>
      <trkpt lat="46.89248" lon="-1.27223">
        <ele>69</ele>
        <time>2012-03-24T15:58:26Z</time>
      </trkpt>
      <trkpt lat="46.89205" lon="-1.2783">
        <ele>64</ele>
        <time>2012-03-24T15:59:35Z</time>
      </trkpt>
      <trkpt lat="46.89203" lon="-1.27899">
        <ele>62</ele>
        <time>2012-03-24T15:59:43Z</time>
      </trkpt>
      <trkpt lat="46.89211" lon="-1.27991">
        <ele>59</ele>
        <time>2012-03-24T15:59:54Z</time>
      </trkpt>
      <trkpt lat="46.89361" lon="-1.29274">
        <ele>71</ele>
        <time>2012-03-24T16:02:22Z</time>
      </trkpt>
      <trkpt lat="46.89367" lon="-1.29346">
        <ele>71</ele>
        <time>2012-03-24T16:02:30Z</time>
      </trkpt>
      <trkpt lat="46.89364" lon="-1.29413">
        <ele>70</ele>
        <time>2012-03-24T16:02:38Z</time>
      </trkpt>
      <trkpt lat="46.8936" lon="-1.29447">
        <ele>70</ele>
        <time>2012-03-24T16:02:42Z</time>
      </trkpt>
      <trkpt lat="46.89342" lon="-1.29524">
        <ele>70</ele>
        <time>2012-03-24T16:02:51Z</time>
      </trkpt>
      <trkpt lat="46.89125" lon="-1.30089">
        <ele>64</ele>
        <time>2012-03-24T16:04:05Z</time>
      </trkpt>
      <trkpt lat="46.89087" lon="-1.30213">
        <ele>63</ele>
        <time>2012-03-24T16:04:21Z</time>
      </trkpt>
      <trkpt lat="46.89076" lon="-1.30267">
        <ele>64</ele>
        <time>2012-03-24T16:04:27Z</time>
      </trkpt>
      <trkpt lat="46.89075" lon="-1.30294">
        <ele>64</ele>
        <time>2012-03-24T16:04:30Z</time>
      </trkpt>
      <trkpt lat="46.89096" lon="-1.30427">
        <ele>65</ele>
        <time>2012-03-24T16:04:46Z</time>
      </trkpt>
      <trkpt lat="46.89108" lon="-1.30534">
        <ele>63</ele>
        <time>2012-03-24T16:04:58Z</time>
      </trkpt>
      <trkpt lat="46.89114" lon="-1.30622">
        <ele>62</ele>
        <time>2012-03-24T16:05:08Z</time>
      </trkpt>
      <trkpt lat="46.89109" lon="-1.307">
        <ele>61</ele>
        <time>2012-03-24T16:05:17Z</time>
      </trkpt>
      <trkpt lat="46.89088" lon="-1.30776">
        <ele>60</ele>
        <time>2012-03-24T16:05:26Z</time>
      </trkpt>
      <trkpt lat="46.89049" lon="-1.30882">
        <ele>59</ele>
        <time>2012-03-24T16:05:40Z</time>
      </trkpt>
      <trkpt lat="46.88959" lon="-1.31097">
        <ele>59</ele>
        <time>2012-03-24T16:06:09Z</time>
      </trkpt>
      <trkpt lat="46.88912" lon="-1.31188">
        <ele>59</ele>
        <time>2012-03-24T16:06:22Z</time>
      </trkpt>
      <trkpt lat="46.88879" lon="-1.31158">
        <ele>61</ele>
      </trkpt>
      <trkpt lat="46.88808" lon="-1.31109">
        <ele>61.1</ele>
      </trkpt>
      <trkpt lat="46.8874" lon="-1.31076">
        <ele>62</ele>
      </trkpt>
      <trkpt lat="46.8864" lon="-1.31066">
        <ele>61</ele>
      </trkpt>
      <trkpt lat="46.88563" lon="-1.31076">
        <ele>61.6</ele>
      </trkpt>
      <trkpt lat="46.88479" lon="-1.31113">
        <ele>64.8</ele>
      </trkpt>
      <trkpt lat="46.88406" lon="-1.31167">
        <ele>68.4</ele>
      </trkpt>
      <trkpt lat="46.88349" lon="-1.31231">
        <ele>69.5</ele>
      </trkpt>
      <trkpt lat="46.88262" lon="-1.31327">
        <ele>69</ele>
      </trkpt>
      <trkpt lat="46.88178" lon="-1.3143">
        <ele>66.7</ele>
      </trkpt>
      <trkpt lat="46.88112" lon="-1.31501">
        <ele>66</ele>
      </trkpt>
      <trkpt lat="46.88064" lon="-1.31585">
        <ele>66.7</ele>
      </trkpt>
      <trkpt lat="46.88035" lon="-1.31651">
        <ele>67.8</ele>
      </trkpt>
      <trkpt lat="46.88016" lon="-1.3172">
        <ele>67.5</ele>
      </trkpt>
      <trkpt lat="46.87978" lon="-1.31776">
        <ele>68.8</ele>
      </trkpt>
      <trkpt lat="46.87941" lon="-1.3181">
        <ele>69</ele>
      </trkpt>
      <trkpt lat="46.87916" lon="-1.31836">
        <ele>70</ele>
      </trkpt>
      <trkpt lat="46.87883" lon="-1.31853">
        <ele>70</ele>
      </trkpt>
      <trkpt lat="46.87841" lon="-1.31868">
        <ele>70.8</ele>
      </trkpt>
      <trkpt lat="46.87793" lon="-1.3187">
        <ele>72</ele>
      </trkpt>
      <trkpt lat="46.87715" lon="-1.3186">
        <ele>71.9</ele>
      </trkpt>
      <trkpt lat="46.87665" lon="-1.31862">
        <ele>71</ele>
      </trkpt>
      <trkpt lat="46.87602" lon="-1.3187">
        <ele>71</ele>
      </trkpt>
      <trkpt lat="46.87539" lon="-1.31905">
        <ele>70.2</ele>
      </trkpt>
      <trkpt lat="46.87492" lon="-1.31948">
        <ele>69</ele>
      </trkpt>
      <trkpt lat="46.8746" lon="-1.31983">
        <ele>68.3</ele>
      </trkpt>
      <trkpt lat="46.87435" lon="-1.32024">
        <ele>67.7</ele>
      </trkpt>
      <trkpt lat="46.87401" lon="-1.32112">
        <ele>67</ele>
      </trkpt>
      <trkpt lat="46.87378" lon="-1.32096">
        <ele>66.3</ele>
      </trkpt>
      <trkpt lat="46.87342" lon="-1.3207">
        <ele>66.7</ele>
      </trkpt>
      <trkpt lat="46.87246" lon="-1.31975">
        <ele>68</ele>
      </trkpt>
      <trkpt lat="46.86662" lon="-1.31424">
        <ele>73.7</ele>
      </trkpt>
      <trkpt lat="46.85583" lon="-1.30411">
        <ele>76</ele>
      </trkpt>
      <trkpt lat="46.85426" lon="-1.30265">
        <ele>76</ele>
      </trkpt>
      <trkpt lat="46.85392" lon="-1.30236">
        <ele>75.1</ele>
      </trkpt>
      <trkpt lat="46.85371" lon="-1.3023">
        <ele>75</ele>
      </trkpt>
      <trkpt lat="46.85237" lon="-1.30555">
        <ele>75.5</ele>
      </trkpt>
      <trkpt lat="46.85094" lon="-1.30921">
        <ele>75.9</ele>
      </trkpt>
      <trkpt lat="46.84948" lon="-1.31285">
        <ele>74.9</ele>
      </trkpt>
      <trkpt lat="46.84873" lon="-1.31466">
        <ele>75.6</ele>
      </trkpt>
      <trkpt lat="46.84783" lon="-1.31691">
        <ele>76</ele>
      </trkpt>
      <trkpt lat="46.84702" lon="-1.31894">
        <ele>76</ele>
      </trkpt>
      <trkpt lat="46.84664" lon="-1.3199">
        <ele>76</ele>
      </trkpt>
      <trkpt lat="46.84621" lon="-1.32133">
        <ele>77.6</ele>
      </trkpt>
      <trkpt lat="46.84601" lon="-1.32196">
        <ele>78</ele>
      </trkpt>
      <trkpt lat="46.84496" lon="-1.32546">
        <ele>78</ele>
      </trkpt>
      <trkpt lat="46.84487" lon="-1.32594">
        <ele>78</ele>
      </trkpt>
      <trkpt lat="46.84465" lon="-1.32774">
        <ele>78</ele>
      </trkpt>
      <trkpt lat="46.84437" lon="-1.33009">
        <ele>76.2</ele>
      </trkpt>
      <trkpt lat="46.84418" lon="-1.33157">
        <ele>74.4</ele>
      </trkpt>
      <trkpt lat="46.84406" lon="-1.33242">
        <ele>74.7</ele>
      </trkpt>
      <trkpt lat="46.844" lon="-1.33288">
        <ele>75.4</ele>
      </trkpt>
      <trkpt lat="46.84393" lon="-1.33317">
        <ele>74.5</ele>
      </trkpt>
      <trkpt lat="46.84377" lon="-1.33365">
        <ele>74</ele>
      </trkpt>
      <trkpt lat="46.8436" lon="-1.33406">
        <ele>74</ele>
      </trkpt>
      <trkpt lat="46.84335" lon="-1.33445">
        <ele>73</ele>
      </trkpt>
      <trkpt lat="46.84252" lon="-1.33529">
        <ele>71</ele>
      </trkpt>
      <trkpt lat="46.84058" lon="-1.33731">
        <ele>72</ele>
      </trkpt>
      <trkpt lat="46.83723" lon="-1.34077">
        <ele>79.2</ele>
      </trkpt>
      <trkpt lat="46.836" lon="-1.34203">
        <ele>78</ele>
      </trkpt>
      <trkpt lat="46.83444" lon="-1.34363">
        <ele>76.9</ele>
      </trkpt>
      <trkpt lat="46.83382" lon="-1.34426">
        <ele>76.7</ele>
      </trkpt>
      <trkpt lat="46.83333" lon="-1.34476">
        <ele>76.9</ele>
      </trkpt>
      <trkpt lat="46.83308" lon="-1.34498">
        <ele>76.1</ele>
        <time>2012-03-24T17:24:58Z</time>
      </trkpt>
      <trkpt lat="46.83306" lon="-1.34471">
        <ele>77</ele>
      </trkpt>
      <trkpt lat="46.83304" lon="-1.34444">
        <ele>76</ele>
        <time>2012-03-24T17:25:04Z</time>
      </trkpt>
      <trkpt lat="46.83284" lon="-1.34359">
        <ele>78</ele>
      </trkpt>
      <trkpt lat="46.83261" lon="-1.34245">
        <ele>77</ele>
        <time>2012-03-24T17:25:28Z</time>
      </trkpt>
      <trkpt lat="46.83242" lon="-1.34138">
        <ele>78</ele>
        <time>2012-03-24T17:25:41Z</time>
      </trkpt>
      <trkpt lat="46.83237" lon="-1.33941">
        <ele>78</ele>
        <time>2012-03-24T17:26:03Z</time>
      </trkpt>
      <trkpt lat="46.83239" lon="-1.33846">
        <ele>78</ele>
        <time>2012-03-24T17:26:14Z</time>
      </trkpt>
      <trkpt lat="46.8327" lon="-1.33574">
        <ele>78</ele>
        <time>2012-03-24T17:26:46Z</time>
      </trkpt>
      <trkpt lat="46.83264" lon="-1.33535">
        <ele>77</ele>
        <time>2012-03-24T17:26:50Z</time>
      </trkpt>
      <trkpt lat="46.83217" lon="-1.33399">
        <ele>77</ele>
        <time>2012-03-24T17:27:07Z</time>
      </trkpt>
      <trkpt lat="46.83208" lon="-1.33349">
        <ele>77</ele>
        <time>2012-03-24T17:27:13Z</time>
      </trkpt>
      <trkpt lat="46.83209" lon="-1.3332">
        <ele>78</ele>
        <time>2012-03-24T17:27:17Z</time>
      </trkpt>
      <trkpt lat="46.83225" lon="-1.33252">
        <ele>78</ele>
        <time>2012-03-24T17:27:25Z</time>
      </trkpt>
      <trkpt lat="46.83229" lon="-1.33209">
        <ele>77</ele>
        <time>2012-03-24T17:27:30Z</time>
      </trkpt>
      <trkpt lat="46.83204" lon="-1.32845">
        <ele>78</ele>
        <time>2012-03-24T17:28:12Z</time>
      </trkpt>
      <trkpt lat="46.83205" lon="-1.32756">
        <ele>78</ele>
        <time>2012-03-24T17:28:22Z</time>
      </trkpt>
      <trkpt lat="46.83225" lon="-1.3268">
        <ele>79</ele>
        <time>2012-03-24T17:28:31Z</time>
      </trkpt>
      <trkpt lat="46.83297" lon="-1.32509">
        <ele>84</ele>
        <time>2012-03-24T17:28:54Z</time>
      </trkpt>
      <trkpt lat="46.83492" lon="-1.31917">
        <ele>77</ele>
        <time>2012-03-24T17:30:09Z</time>
      </trkpt>
      <trkpt lat="46.83509" lon="-1.31831">
        <ele>79</ele>
        <time>2012-03-24T17:30:19Z</time>
      </trkpt>
      <trkpt lat="46.83536" lon="-1.31642">
        <ele>78</ele>
        <time>2012-03-24T17:30:41Z</time>
      </trkpt>
      <trkpt lat="46.83544" lon="-1.31564">
        <ele>77</ele>
        <time>2012-03-24T17:30:50Z</time>
      </trkpt>
      <trkpt lat="46.83544" lon="-1.31515">
        <ele>77</ele>
        <time>2012-03-24T17:30:56Z</time>
      </trkpt>
      <trkpt lat="46.83518" lon="-1.31435">
        <ele>76</ele>
        <time>2012-03-24T17:31:06Z</time>
      </trkpt>
      <trkpt lat="46.83482" lon="-1.31359">
        <ele>75</ele>
        <time>2012-03-24T17:31:16Z</time>
      </trkpt>
      <trkpt lat="46.83464" lon="-1.31312">
        <ele>75</ele>
        <time>2012-03-24T17:31:23Z</time>
      </trkpt>
      <trkpt lat="46.83362" lon="-1.30893">
        <ele>77</ele>
        <time>2012-03-24T17:32:13Z</time>
      </trkpt>
      <trkpt lat="46.83265" lon="-1.30715">
        <ele>77</ele>
        <time>2012-03-24T17:32:39Z</time>
      </trkpt>
      <trkpt lat="46.83201" lon="-1.30502">
        <ele>79</ele>
        <time>2012-03-24T17:33:06Z</time>
      </trkpt>
      <trkpt lat="46.83167" lon="-1.30434">
        <ele>79</ele>
        <time>2012-03-24T17:33:15Z</time>
      </trkpt>
      <trkpt lat="46.83009" lon="-1.30046">
        <ele>76</ele>
        <time>2012-03-24T17:34:07Z</time>
      </trkpt>
      <trkpt lat="46.82998" lon="-1.30001">
        <ele>77</ele>
        <time>2012-03-24T17:34:12Z</time>
      </trkpt>
      <trkpt lat="46.82983" lon="-1.29839">
        <ele>74</ele>
        <time>2012-03-24T17:34:31Z</time>
      </trkpt>
      <trkpt lat="46.82958" lon="-1.29735">
        <ele>72</ele>
        <time>2012-03-24T17:34:44Z</time>
      </trkpt>
      <trkpt lat="46.82918" lon="-1.29466">
        <ele>68</ele>
        <time>2012-03-24T17:35:15Z</time>
      </trkpt>
      <trkpt lat="46.82918" lon="-1.29466">
        <ele>68</ele>
        <time>2012-03-24T17:35:15Z</time>
      </trkpt>
      <trkpt lat="46.82861" lon="-1.29078">
        <ele>67</ele>
        <time>2012-03-24T17:36:00Z</time>
      </trkpt>
      <trkpt lat="46.82862" lon="-1.29025">
        <ele>67</ele>
        <time>2012-03-24T17:36:06Z</time>
      </trkpt>
      <trkpt lat="46.82947" lon="-1.28298">
        <ele>71</ele>
        <time>2012-03-24T17:37:31Z</time>
      </trkpt>
      <trkpt lat="46.82951" lon="-1.28228">
        <ele>70</ele>
        <time>2012-03-24T17:37:39Z</time>
      </trkpt>
      <trkpt lat="46.8295" lon="-1.28191">
        <ele>70</ele>
        <time>2012-03-24T17:37:43Z</time>
      </trkpt>
      <trkpt lat="46.82935" lon="-1.28058">
        <ele>69</ele>
        <time>2012-03-24T17:37:58Z</time>
      </trkpt>
      <trkpt lat="46.82921" lon="-1.27717">
        <ele>69</ele>
        <time>2012-03-24T17:38:37Z</time>
      </trkpt>
      <trkpt lat="46.82911" lon="-1.27655">
        <ele>68</ele>
        <time>2012-03-24T17:38:44Z</time>
      </trkpt>
      <trkpt lat="46.82894" lon="-1.27603">
        <ele>66</ele>
        <time>2012-03-24T17:38:51Z</time>
      </trkpt>
      <trkpt lat="46.82907" lon="-1.27566">
        <ele>67</ele>
        <time>2012-03-24T17:38:56Z</time>
      </trkpt>
      <trkpt lat="46.82911" lon="-1.27498">
        <ele>67</ele>
        <time>2012-03-24T17:39:04Z</time>
      </trkpt>
      <trkpt lat="46.82879" lon="-1.27334">
        <ele>70</ele>
        <time>2012-03-24T17:39:23Z</time>
      </trkpt>
      <trkpt lat="46.82878" lon="-1.27326">
        <ele>70</ele>
        <time>2012-03-24T17:39:24Z</time>
      </trkpt>
      <trkpt lat="46.82884" lon="-1.27306">
        <ele>71</ele>
        <time>2012-03-24T17:39:26Z</time>
      </trkpt>
      <trkpt lat="46.82864" lon="-1.27286">
        <ele>70</ele>
        <time>2012-03-24T17:39:30Z</time>
      </trkpt>
      <trkpt lat="46.82857" lon="-1.27263">
        <ele>71</ele>
        <time>2012-03-24T17:39:33Z</time>
      </trkpt>
      <trkpt lat="46.82858" lon="-1.27144">
        <ele>71</ele>
        <time>2012-03-24T17:39:47Z</time>
      </trkpt>
      <trkpt lat="46.82877" lon="-1.27094">
        <ele>71</ele>
        <time>2012-03-24T17:39:53Z</time>
      </trkpt>
      <trkpt lat="46.82881" lon="-1.27057">
        <ele>70</ele>
        <time>2012-03-24T17:39:58Z</time>
      </trkpt>
      <trkpt lat="46.82958" lon="-1.27024">
        <ele>67</ele>
        <time>2012-03-24T17:40:11Z</time>
      </trkpt>
      <trkpt lat="46.82993" lon="-1.27004">
        <ele>64</ele>
        <time>2012-03-24T17:40:17Z</time>
      </trkpt>
      <trkpt lat="46.82996" lon="-1.26996">
        <ele>64</ele>
        <time>2012-03-24T17:40:18Z</time>
      </trkpt>
      <trkpt lat="46.83019" lon="-1.26981">
        <ele>63</ele>
        <time>2012-03-24T17:40:23Z</time>
      </trkpt>
      <trkpt lat="46.8306" lon="-1.26919">
        <ele>59</ele>
        <time>2012-03-24T17:40:32Z</time>
      </trkpt>
      <trkpt lat="46.83121" lon="-1.26791">
        <ele>56</ele>
        <time>2012-03-24T17:40:50Z</time>
      </trkpt>
      <trkpt lat="46.83127" lon="-1.26767">
        <ele>57</ele>
        <time>2012-03-24T17:40:53Z</time>
      </trkpt>
      <trkpt lat="46.83129" lon="-1.26725">
        <ele>59</ele>
        <time>2012-03-24T17:40:58Z</time>
      </trkpt>
      <trkpt lat="46.83115" lon="-1.26431">
        <ele>66</ele>
        <time>2012-03-24T17:41:32Z</time>
      </trkpt>
      <trkpt lat="46.83118" lon="-1.26339">
        <ele>66</ele>
        <time>2012-03-24T17:41:42Z</time>
      </trkpt>
      <trkpt lat="46.83129" lon="-1.26298">
        <ele>66</ele>
        <time>2012-03-24T17:41:47Z</time>
      </trkpt>
      <trkpt lat="46.83215" lon="-1.26085">
        <ele>66</ele>
        <time>2012-03-24T17:42:15Z</time>
      </trkpt>
      <trkpt lat="46.83238" lon="-1.26053">
        <ele>66</ele>
        <time>2012-03-24T17:42:21Z</time>
      </trkpt>
      <trkpt lat="46.83354" lon="-1.25947">
        <ele>62</ele>
        <time>2012-03-24T17:42:43Z</time>
      </trkpt>
      <trkpt lat="46.83381" lon="-1.2592">
        <ele>62</ele>
        <time>2012-03-24T17:42:49Z</time>
      </trkpt>
      <trkpt lat="46.83406" lon="-1.25887">
        <ele>62</ele>
        <time>2012-03-24T17:42:55Z</time>
      </trkpt>
      <trkpt lat="46.83615" lon="-1.25447">
        <ele>74</ele>
        <time>2012-03-24T17:43:56Z</time>
      </trkpt>
      <trkpt lat="46.83735" lon="-1.25295">
        <ele>77</ele>
        <time>2012-03-24T17:44:22Z</time>
      </trkpt>
      <trkpt lat="46.83764" lon="-1.25242">
        <ele>78</ele>
        <time>2012-03-24T17:44:30Z</time>
      </trkpt>
      <trkpt lat="46.83785" lon="-1.2518">
        <ele>79</ele>
        <time>2012-03-24T17:44:38Z</time>
      </trkpt>
      <trkpt lat="46.83968" lon="-1.24232">
        <ele>76</ele>
        <time>2012-03-24T17:46:30Z</time>
      </trkpt>
      <trkpt lat="46.83981" lon="-1.24151">
        <ele>74</ele>
        <time>2012-03-24T17:46:40Z</time>
      </trkpt>
      <trkpt lat="46.83983" lon="-1.24067">
        <ele>72</ele>
        <time>2012-03-24T17:46:49Z</time>
      </trkpt>
      <trkpt lat="46.83979" lon="-1.24029">
        <ele>72</ele>
        <time>2012-03-24T17:46:54Z</time>
      </trkpt>
      <trkpt lat="46.83949" lon="-1.2388">
        <ele>74</ele>
        <time>2012-03-24T17:47:11Z</time>
      </trkpt>
      <trkpt lat="46.83944" lon="-1.23841">
        <ele>76</ele>
        <time>2012-03-24T17:47:16Z</time>
      </trkpt>
      <trkpt lat="46.83943" lon="-1.23774">
        <ele>77</ele>
        <time>2012-03-24T17:47:24Z</time>
      </trkpt>
      <trkpt lat="46.83976" lon="-1.23371">
        <ele>78</ele>
        <time>2012-03-24T17:48:10Z</time>
      </trkpt>
      <trkpt lat="46.83984" lon="-1.23309">
        <ele>77</ele>
        <time>2012-03-24T17:48:17Z</time>
      </trkpt>
      <trkpt lat="46.83999" lon="-1.23242">
        <ele>77</ele>
        <time>2012-03-24T17:48:25Z</time>
      </trkpt>
      <trkpt lat="46.84144" lon="-1.22767">
        <ele>75</ele>
        <time>2012-03-24T17:49:24Z</time>
      </trkpt>
      <trkpt lat="46.84171" lon="-1.22658">
        <ele>75</ele>
        <time>2012-03-24T17:49:38Z</time>
      </trkpt>
      <trkpt lat="46.84175" lon="-1.22597">
        <ele>76</ele>
        <time>2012-03-24T17:49:45Z</time>
      </trkpt>
      <trkpt lat="46.84174" lon="-1.22555">
        <ele>76</ele>
        <time>2012-03-24T17:49:49Z</time>
      </trkpt>
      <trkpt lat="46.84162" lon="-1.22425">
        <ele>76</ele>
        <time>2012-03-24T17:50:04Z</time>
      </trkpt>
      <trkpt lat="46.84157" lon="-1.22298">
        <ele>77</ele>
        <time>2012-03-24T17:50:19Z</time>
      </trkpt>
      <trkpt lat="46.8417" lon="-1.21978">
        <ele>80</ele>
        <time>2012-03-24T17:50:55Z</time>
      </trkpt>
      <trkpt lat="46.84178" lon="-1.21907">
        <ele>79</ele>
        <time>2012-03-24T17:51:04Z</time>
      </trkpt>
      <trkpt lat="46.842" lon="-1.21817">
        <ele>78</ele>
        <time>2012-03-24T17:51:15Z</time>
      </trkpt>
      <trkpt lat="46.84434" lon="-1.21347">
        <ele>72</ele>
        <time>2012-03-24T17:52:21Z</time>
      </trkpt>
      <trkpt lat="46.84462" lon="-1.21275">
        <ele>73</ele>
        <time>2012-03-24T17:52:30Z</time>
      </trkpt>
      <trkpt lat="46.84475" lon="-1.21216">
        <ele>73</ele>
        <time>2012-03-24T17:52:37Z</time>
      </trkpt>
      <trkpt lat="46.84475" lon="-1.21216">
        <ele>73</ele>
        <time>2012-03-24T17:52:37Z</time>
      </trkpt>
      <trkpt lat="46.84634" lon="-1.20321">
        <ele>65</ele>
        <time>2012-03-24T17:54:23Z</time>
      </trkpt>
      <trkpt lat="46.84649" lon="-1.20262">
        <ele>63</ele>
        <time>2012-03-24T17:54:30Z</time>
      </trkpt>
      <trkpt lat="46.84658" lon="-1.20239">
        <ele>63</ele>
        <time>2012-03-24T17:54:33Z</time>
      </trkpt>
      <trkpt lat="46.8468" lon="-1.20208">
        <ele>62</ele>
        <time>2012-03-24T17:54:38Z</time>
      </trkpt>
      <trkpt lat="46.84851" lon="-1.19992">
        <ele>62</ele>
        <time>2012-03-24T17:55:16Z</time>
      </trkpt>
      <trkpt lat="46.84984" lon="-1.1987">
        <ele>61</ele>
        <time>2012-03-24T17:55:42Z</time>
      </trkpt>
      <trkpt lat="46.85004" lon="-1.19834">
        <ele>61</ele>
        <time>2012-03-24T17:55:47Z</time>
      </trkpt>
      <trkpt lat="46.85055" lon="-1.19692">
        <ele>57</ele>
        <time>2012-03-24T17:56:06Z</time>
      </trkpt>
      <trkpt lat="46.85061" lon="-1.19659">
        <ele>57</ele>
        <time>2012-03-24T17:56:10Z</time>
      </trkpt>
      <trkpt lat="46.85058" lon="-1.19612">
        <ele>58</ele>
        <time>2012-03-24T17:56:15Z</time>
      </trkpt>
      <trkpt lat="46.8499" lon="-1.19394">
        <ele>63</ele>
        <time>2012-03-24T17:56:42Z</time>
      </trkpt>
      <trkpt lat="46.84981" lon="-1.19339">
        <ele>66</ele>
        <time>2012-03-24T17:56:49Z</time>
      </trkpt>
      <trkpt lat="46.84995" lon="-1.19273">
        <ele>68</ele>
        <time>2012-03-24T17:56:57Z</time>
      </trkpt>
      <trkpt lat="46.85088" lon="-1.18972">
        <ele>75</ele>
        <time>2012-03-24T17:57:34Z</time>
      </trkpt>
      <trkpt lat="46.85093" lon="-1.18905">
        <ele>77</ele>
        <time>2012-03-24T17:57:42Z</time>
      </trkpt>
      <trkpt lat="46.85079" lon="-1.18786">
        <ele>79</ele>
        <time>2012-03-24T17:57:56Z</time>
      </trkpt>
      <trkpt lat="46.84963" lon="-1.17965">
        <ele>75</ele>
        <time>2012-03-24T17:59:31Z</time>
      </trkpt>
      <trkpt lat="46.84955" lon="-1.17948">
        <ele>75</ele>
        <time>2012-03-24T17:59:34Z</time>
      </trkpt>
      <trkpt lat="46.84946" lon="-1.17941">
        <ele>75</ele>
        <time>2012-03-24T17:59:35Z</time>
      </trkpt>
      <trkpt lat="46.85008" lon="-1.17755">
        <ele>73</ele>
        <time>2012-03-24T17:59:59Z</time>
      </trkpt>
      <trkpt lat="46.8501" lon="-1.17729">
        <ele>74</ele>
        <time>2012-03-24T18:00:02Z</time>
      </trkpt>
      <trkpt lat="46.85007" lon="-1.1768">
        <ele>75</ele>
        <time>2012-03-24T18:00:08Z</time>
      </trkpt>
      <trkpt lat="46.85012" lon="-1.17648">
        <ele>75</ele>
        <time>2012-03-24T18:00:11Z</time>
      </trkpt>
      <trkpt lat="46.85022" lon="-1.17615">
        <ele>76</ele>
        <time>2012-03-24T18:00:16Z</time>
      </trkpt>
      <trkpt lat="46.85059" lon="-1.1761">
        <ele>77</ele>
        <time>2012-03-24T18:00:22Z</time>
      </trkpt>
      <trkpt lat="46.85032" lon="-1.17506">
        <ele>76</ele>
        <time>2012-03-24T18:00:34Z</time>
      </trkpt>
      <trkpt lat="46.85032" lon="-1.17433">
        <ele>76</ele>
        <time>2012-03-24T18:00:43Z</time>
      </trkpt>
      <trkpt lat="46.85027" lon="-1.17382">
        <ele>77</ele>
        <time>2012-03-24T18:00:49Z</time>
      </trkpt>
      <trkpt lat="46.84999" lon="-1.173">
        <ele>78</ele>
        <time>2012-03-24T18:00:59Z</time>
      </trkpt>
      <trkpt lat="46.84994" lon="-1.17304">
        <ele>78</ele>
        <time>2012-03-24T18:01:00Z</time>
      </trkpt>
      <trkpt lat="46.84991" lon="-1.17296">
        <ele>79</ele>
        <time>2012-03-24T18:01:01Z</time>
      </trkpt>
      <trkpt lat="46.85" lon="-1.17287">
        <ele>79</ele>
        <time>2012-03-24T18:01:03Z</time>
      </trkpt>
      <trkpt lat="46.85007" lon="-1.17217">
        <ele>79</ele>
        <time>2012-03-24T18:01:11Z</time>
      </trkpt>
      <trkpt lat="46.85061" lon="-1.17012">
        <ele>81</ele>
        <time>2012-03-24T18:01:36Z</time>
      </trkpt>
      <trkpt lat="46.85171" lon="-1.16746">
        <ele>87</ele>
        <time>2012-03-24T18:02:11Z</time>
      </trkpt>
      <trkpt lat="46.85172" lon="-1.16681">
        <ele>87</ele>
        <time>2012-03-24T18:02:19Z</time>
      </trkpt>
      <trkpt lat="46.85176" lon="-1.16672">
        <ele>87</ele>
        <time>2012-03-24T18:02:20Z</time>
      </trkpt>
      <trkpt lat="46.85182" lon="-1.16669">
        <ele>87</ele>
        <time>2012-03-24T18:02:21Z</time>
      </trkpt>
      <trkpt lat="46.85195" lon="-1.16628">
        <ele>88</ele>
        <time>2012-03-24T18:02:26Z</time>
      </trkpt>
      <trkpt lat="46.85226" lon="-1.165">
        <ele>90</ele>
        <time>2012-03-24T18:02:42Z</time>
      </trkpt>
      <trkpt lat="46.85529" lon="-1.15152">
        <ele>100</ele>
        <time>2012-03-24T18:05:24Z</time>
      </trkpt>
      <trkpt lat="46.85528" lon="-1.15152">
        <ele>100</ele>
        <time>2012-03-24T18:05:24Z</time>
      </trkpt>
      <trkpt lat="46.85622" lon="-1.14722">
        <ele>97</ele>
        <time>2012-03-24T18:06:15Z</time>
      </trkpt>
      <trkpt lat="46.85684" lon="-1.14216">
        <ele>99</ele>
        <time>2012-03-24T18:07:14Z</time>
      </trkpt>
      <trkpt lat="46.85698" lon="-1.1416">
        <ele>100</ele>
        <time>2012-03-24T18:07:21Z</time>
      </trkpt>
      <trkpt lat="46.85718" lon="-1.14107">
        <ele>101</ele>
        <time>2012-03-24T18:07:28Z</time>
      </trkpt>
      <trkpt lat="46.85755" lon="-1.14049">
        <ele>102</ele>
        <time>2012-03-24T18:07:37Z</time>
      </trkpt>
      <trkpt lat="46.85788" lon="-1.14016">
        <ele>103</ele>
        <time>2012-03-24T18:07:43Z</time>
      </trkpt>
      <trkpt lat="46.85913" lon="-1.13932">
        <ele>104</ele>
        <time>2012-03-24T18:08:06Z</time>
      </trkpt>
      <trkpt lat="46.85952" lon="-1.13891">
        <ele>103</ele>
        <time>2012-03-24T18:08:14Z</time>
      </trkpt>
      <trkpt lat="46.85986" lon="-1.13841">
        <ele>103</ele>
        <time>2012-03-24T18:08:22Z</time>
      </trkpt>
      <trkpt lat="46.86016" lon="-1.13787">
        <ele>103</ele>
        <time>2012-03-24T18:08:30Z</time>
      </trkpt>
      <trkpt lat="46.8633" lon="-1.13154">
        <ele>101</ele>
        <time>2012-03-24T18:09:59Z</time>
      </trkpt>
      <trkpt lat="46.86353" lon="-1.13083">
        <ele>102</ele>
        <time>2012-03-24T18:10:08Z</time>
      </trkpt>
      <trkpt lat="46.86416" lon="-1.12851">
        <ele>100</ele>
        <time>2012-03-24T18:10:37Z</time>
      </trkpt>
      <trkpt lat="46.86492" lon="-1.12397">
        <ele>96</ele>
        <time>2012-03-24T18:11:30Z</time>
      </trkpt>
      <trkpt lat="46.86516" lon="-1.12274">
        <ele>94</ele>
        <time>2012-03-24T18:11:45Z</time>
      </trkpt>
      <trkpt lat="46.86627" lon="-1.11897">
        <ele>87</ele>
        <time>2012-03-24T18:12:32Z</time>
      </trkpt>
      <trkpt lat="46.8663" lon="-1.1186">
        <ele>86</ele>
        <time>2012-03-24T18:12:36Z</time>
      </trkpt>
      <trkpt lat="46.86626" lon="-1.11828">
        <ele>85</ele>
        <time>2012-03-24T18:12:40Z</time>
      </trkpt>
      <trkpt lat="46.86456" lon="-1.11219">
        <ele>95</ele>
        <time>2012-03-24T18:13:55Z</time>
      </trkpt>
      <trkpt lat="46.86404" lon="-1.10912">
        <ele>96</ele>
        <time>2012-03-24T18:14:31Z</time>
      </trkpt>
      <trkpt lat="46.8639" lon="-1.10856">
        <ele>95</ele>
        <time>2012-03-24T18:14:37Z</time>
      </trkpt>
      <trkpt lat="46.86383" lon="-1.10781">
        <ele>94</ele>
        <time>2012-03-24T18:14:46Z</time>
      </trkpt>
      <trkpt lat="46.86361" lon="-1.10666">
        <ele>93</ele>
        <time>2012-03-24T18:15:00Z</time>
      </trkpt>
      <trkpt lat="46.86338" lon="-1.10594">
        <ele>94</ele>
        <time>2012-03-24T18:15:09Z</time>
      </trkpt>
      <trkpt lat="46.86158" lon="-1.10102">
        <ele>87</ele>
        <time>2012-03-24T18:16:12Z</time>
      </trkpt>
      <trkpt lat="46.86138" lon="-1.10061">
        <ele>86</ele>
        <time>2012-03-24T18:16:18Z</time>
      </trkpt>
      <trkpt lat="46.86073" lon="-1.09985">
        <ele>88</ele>
        <time>2012-03-24T18:16:32Z</time>
      </trkpt>
      <trkpt lat="46.86052" lon="-1.09937">
        <ele>89</ele>
        <time>2012-03-24T18:16:39Z</time>
      </trkpt>
      <trkpt lat="46.86076" lon="-1.09902">
        <ele>88</ele>
        <time>2012-03-24T18:16:44Z</time>
      </trkpt>
      <trkpt lat="46.86163" lon="-1.09809">
        <ele>83</ele>
        <time>2012-03-24T18:17:02Z</time>
      </trkpt>
      <trkpt lat="46.86172" lon="-1.09778">
        <ele>82</ele>
        <time>2012-03-24T18:17:06Z</time>
      </trkpt>
      <trkpt lat="46.86178" lon="-1.09689">
        <ele>79</ele>
        <time>2012-03-24T18:17:16Z</time>
      </trkpt>
      <trkpt lat="46.86186" lon="-1.09638">
        <ele>79</ele>
        <time>2012-03-24T18:17:22Z</time>
      </trkpt>
      <trkpt lat="46.8621" lon="-1.09585">
        <ele>79</ele>
        <time>2012-03-24T18:17:29Z</time>
      </trkpt>
      <trkpt lat="46.86343" lon="-1.09319">
        <ele>83</ele>
        <time>2012-03-24T18:18:07Z</time>
      </trkpt>
      <trkpt lat="46.86376" lon="-1.09278">
        <ele>85</ele>
        <time>2012-03-24T18:18:14Z</time>
      </trkpt>
      <trkpt lat="46.8645" lon="-1.09211">
        <ele>88</ele>
        <time>2012-03-24T18:18:29Z</time>
      </trkpt>
      <trkpt lat="46.8645" lon="-1.09211">
        <ele>88</ele>
        <time>2012-03-24T18:18:29Z</time>
      </trkpt>
      <trkpt lat="46.87118" lon="-1.08639">
        <ele>94</ele>
        <time>2012-03-24T18:20:38Z</time>
      </trkpt>
      <trkpt lat="46.87176" lon="-1.08587">
        <ele>95</ele>
        <time>2012-03-24T18:20:49Z</time>
      </trkpt>
      <trkpt lat="46.87215" lon="-1.08539">
        <ele>96</ele>
        <time>2012-03-24T18:20:58Z</time>
      </trkpt>
      <trkpt lat="46.87239" lon="-1.08493">
        <ele>96</ele>
        <time>2012-03-24T18:21:04Z</time>
      </trkpt>
      <trkpt lat="46.87253" lon="-1.08456">
        <ele>96</ele>
        <time>2012-03-24T18:21:09Z</time>
      </trkpt>
      <trkpt lat="46.87407" lon="-1.07978">
        <ele>91</ele>
        <time>2012-03-24T18:22:09Z</time>
      </trkpt>
      <trkpt lat="46.87514" lon="-1.07661">
        <ele>85</ele>
        <time>2012-03-24T18:22:50Z</time>
      </trkpt>
      <trkpt lat="46.87531" lon="-1.07589">
        <ele>83</ele>
        <time>2012-03-24T18:22:58Z</time>
      </trkpt>
      <trkpt lat="46.87542" lon="-1.07497">
        <ele>83</ele>
        <time>2012-03-24T18:23:09Z</time>
      </trkpt>
      <trkpt lat="46.87558" lon="-1.0734">
        <ele>82</ele>
        <time>2012-03-24T18:23:27Z</time>
      </trkpt>
      <trkpt lat="46.87562" lon="-1.07247">
        <ele>82</ele>
        <time>2012-03-24T18:23:38Z</time>
      </trkpt>
      <trkpt lat="46.8754" lon="-1.06948">
        <ele>84</ele>
        <time>2012-03-24T18:24:12Z</time>
      </trkpt>
      <trkpt lat="46.87531" lon="-1.0686">
        <ele>84</ele>
        <time>2012-03-24T18:24:22Z</time>
      </trkpt>
      <trkpt lat="46.87492" lon="-1.06595">
        <ele>86</ele>
        <time>2012-03-24T18:24:53Z</time>
      </trkpt>
      <trkpt lat="46.87491" lon="-1.06543">
        <ele>86</ele>
        <time>2012-03-24T18:24:59Z</time>
      </trkpt>
      <trkpt lat="46.87513" lon="-1.06343">
        <ele>85</ele>
        <time>2012-03-24T18:25:22Z</time>
      </trkpt>
      <trkpt lat="46.87672" lon="-1.05463">
        <ele>85</ele>
        <time>2012-03-24T18:27:06Z</time>
      </trkpt>
      <trkpt lat="46.87674" lon="-1.05406">
        <ele>86</ele>
        <time>2012-03-24T18:27:12Z</time>
      </trkpt>
      <trkpt lat="46.87671" lon="-1.05364">
        <ele>86</ele>
        <time>2012-03-24T18:27:17Z</time>
      </trkpt>
      <trkpt lat="46.87643" lon="-1.05201">
        <ele>87</ele>
        <time>2012-03-24T18:27:36Z</time>
      </trkpt>
      <trkpt lat="46.87625" lon="-1.05136">
        <ele>87</ele>
        <time>2012-03-24T18:27:44Z</time>
      </trkpt>
      <trkpt lat="46.87564" lon="-1.04979">
        <ele>87</ele>
        <time>2012-03-24T18:28:05Z</time>
      </trkpt>
      <trkpt lat="46.8725" lon="-1.04235">
        <ele>88</ele>
        <time>2012-03-24T18:29:45Z</time>
      </trkpt>
      <trkpt lat="46.87224" lon="-1.04155">
        <ele>90</ele>
        <time>2012-03-24T18:29:55Z</time>
      </trkpt>
      <trkpt lat="46.87213" lon="-1.041">
        <ele>92</ele>
        <time>2012-03-24T18:30:01Z</time>
      </trkpt>
      <trkpt lat="46.87204" lon="-1.04022">
        <ele>92</ele>
        <time>2012-03-24T18:30:10Z</time>
      </trkpt>
      <trkpt lat="46.87179" lon="-1.0391">
        <ele>91</ele>
        <time>2012-03-24T18:30:24Z</time>
      </trkpt>
      <trkpt lat="46.87156" lon="-1.0385">
        <ele>91</ele>
        <time>2012-03-24T18:30:32Z</time>
      </trkpt>
      <trkpt lat="46.87131" lon="-1.03817">
        <ele>90</ele>
        <time>2012-03-24T18:30:37Z</time>
      </trkpt>
      <trkpt lat="46.87121" lon="-1.03816">
        <ele>91</ele>
        <time>2012-03-24T18:30:39Z</time>
      </trkpt>
      <trkpt lat="46.87115" lon="-1.03807">
        <ele>91</ele>
        <time>2012-03-24T18:30:40Z</time>
      </trkpt>
      <trkpt lat="46.87116" lon="-1.03789">
        <ele>91</ele>
        <time>2012-03-24T18:30:42Z</time>
      </trkpt>
      <trkpt lat="46.87123" lon="-1.03783">
        <ele>91</ele>
        <time>2012-03-24T18:30:44Z</time>
      </trkpt>
      <trkpt lat="46.8712" lon="-1.03771">
        <ele>91</ele>
        <time>2012-03-24T18:30:45Z</time>
      </trkpt>
      <trkpt lat="46.87123" lon="-1.03737">
        <ele>91</ele>
        <time>2012-03-24T18:30:49Z</time>
      </trkpt>
      <trkpt lat="46.87117" lon="-1.03678">
        <ele>91</ele>
        <time>2012-03-24T18:30:56Z</time>
      </trkpt>
      <trkpt lat="46.87119" lon="-1.03627">
        <ele>91</ele>
        <time>2012-03-24T18:31:02Z</time>
      </trkpt>
      <trkpt lat="46.87129" lon="-1.03578">
        <ele>90</ele>
        <time>2012-03-24T18:31:08Z</time>
      </trkpt>
      <trkpt lat="46.87172" lon="-1.0342">
        <ele>91</ele>
        <time>2012-03-24T18:31:27Z</time>
      </trkpt>
      <trkpt lat="46.87178" lon="-1.03381">
        <ele>91</ele>
        <time>2012-03-24T18:31:31Z</time>
      </trkpt>
      <trkpt lat="46.87183" lon="-1.033">
        <ele>90</ele>
        <time>2012-03-24T18:31:41Z</time>
      </trkpt>
      <trkpt lat="46.87179" lon="-1.03214">
        <ele>90</ele>
        <time>2012-03-24T18:31:51Z</time>
      </trkpt>
      <trkpt lat="46.87153" lon="-1.02944">
        <ele>93</ele>
        <time>2012-03-24T18:32:22Z</time>
      </trkpt>
      <trkpt lat="46.87147" lon="-1.02741">
        <ele>95</ele>
        <time>2012-03-24T18:32:45Z</time>
      </trkpt>
      <trkpt lat="46.87137" lon="-1.02721">
        <ele>96</ele>
        <time>2012-03-24T18:32:48Z</time>
      </trkpt>
      <trkpt lat="46.87139" lon="-1.02695">
        <ele>97</ele>
        <time>2012-03-24T18:32:51Z</time>
      </trkpt>
      <trkpt lat="46.87134" lon="-1.02671">
        <ele>98</ele>
        <time>2012-03-24T18:32:54Z</time>
      </trkpt>
      <trkpt lat="46.87044" lon="-1.02437">
        <ele>103</ele>
        <time>2012-03-24T18:33:24Z</time>
      </trkpt>
      <trkpt lat="46.87044" lon="-1.02437">
        <ele>103</ele>
        <time>2012-03-24T18:33:24Z</time>
      </trkpt>
      <trkpt lat="46.8703" lon="-1.0239">
        <ele>104</ele>
        <time>2012-03-24T18:33:30Z</time>
      </trkpt>
      <trkpt lat="46.8701" lon="-1.02262">
        <ele>105</ele>
        <time>2012-03-24T18:33:45Z</time>
      </trkpt>
      <trkpt lat="46.87007" lon="-1.02218">
        <ele>106</ele>
        <time>2012-03-24T18:33:50Z</time>
      </trkpt>
      <trkpt lat="46.87012" lon="-1.02094">
        <ele>107</ele>
        <time>2012-03-24T18:34:04Z</time>
      </trkpt>
      <trkpt lat="46.87004" lon="-1.02083">
        <ele>107</ele>
        <time>2012-03-24T18:34:06Z</time>
      </trkpt>
      <trkpt lat="46.87029" lon="-1.02007">
        <ele>109</ele>
        <time>2012-03-24T18:34:16Z</time>
      </trkpt>
      <trkpt lat="46.871" lon="-1.01562">
        <ele>109</ele>
        <time>2012-03-24T18:35:08Z</time>
      </trkpt>
      <trkpt lat="46.87079" lon="-1.01558">
        <ele>107</ele>
        <time>2012-03-24T18:35:11Z</time>
      </trkpt>
      <trkpt lat="46.87042" lon="-1.01558">
        <ele>105</ele>
        <time>2012-03-24T18:35:17Z</time>
      </trkpt>
      <trkpt lat="46.87016" lon="-1.01575">
        <ele>102</ele>
        <time>2012-03-24T18:35:22Z</time>
      </trkpt>
      <trkpt lat="46.86987" lon="-1.01576">
        <ele>101</ele>
        <time>2012-03-24T18:35:27Z</time>
      </trkpt>
      <trkpt lat="46.86895" lon="-1.01496">
        <ele>106</ele>
        <time>2012-03-24T18:35:45Z</time>
      </trkpt>
      <trkpt lat="46.86837" lon="-1.01477">
        <ele>110</ele>
        <time>2012-03-24T18:35:55Z</time>
      </trkpt>
      <trkpt lat="46.86806" lon="-1.0146">
        <ele>111</ele>
        <time>2012-03-24T18:36:00Z</time>
      </trkpt>
      <trkpt lat="46.86806" lon="-1.0146">
        <ele>111</ele>
        <time>2012-03-24T18:36:00Z</time>
      </trkpt>
      <trkpt lat="46.86742" lon="-1.01399">
        <ele>112</ele>
        <time>2012-03-24T18:36:13Z</time>
      </trkpt>
      <trkpt lat="46.86707" lon="-1.01388">
        <ele>112</ele>
        <time>2012-03-24T18:36:19Z</time>
      </trkpt>
      <trkpt lat="46.86684" lon="-1.01389">
        <ele>112</ele>
        <time>2012-03-24T18:36:23Z</time>
      </trkpt>
      <trkpt lat="46.86675" lon="-1.01388">
        <ele>112</ele>
        <time>2012-03-24T18:36:24Z</time>
      </trkpt>
      <trkpt lat="46.86674" lon="-1.01378">
        <ele>112</ele>
        <time>2012-03-24T18:36:25Z</time>
      </trkpt>
      <trkpt lat="46.86677" lon="-1.01372">
        <ele>111</ele>
        <time>2012-03-24T18:36:26Z</time>
      </trkpt>
      <trkpt lat="46.8651" lon="-1.01151">
        <ele>114</ele>
        <time>2012-03-24T18:37:04Z</time>
      </trkpt>
      <trkpt lat="46.86495" lon="-1.01137">
        <ele>115</ele>
        <time>2012-03-24T18:37:07Z</time>
      </trkpt>
      <trkpt lat="46.86419" lon="-1.01038">
        <ele>119</ele>
        <time>2012-03-24T18:37:24Z</time>
      </trkpt>
    </trkseg>
  </trk>
</gpx>